sensor_id;sensor_type;location;lat;lon;timestamp;P1;durP1;ratioP1;P2;durP2;ratioP2
11398;SDS011;5755;48.116;11.608;2022-12-18T00:02:34;43.03;;;19.47;;
11398;SDS011;5755;48.116;11.608;2022-12-18T00:05:10;41.97;;;19.07;;
11398;SDS011;5755;48.116;11.608;2022-12-18T00:13:53;39.50;;;18.83;;
11398;SDS011;5755;48.116;11.608;2022-12-18T00:16:25;47.90;;;20.47;;
11398;SDS011;5755;48.116;11.608;2022-12-18T00:19:05;47.13;;;21.20;;
11398;SDS011;5755;48.116;11.608;2022-12-18T00:21:34;45.03;;;20.87;;
11398;SDS011;5755;48.116;11.608;2022-12-18T00:24:05;45.50;;;22.00;;
11398;SDS011;5755;48.116;11.608;2022-12-18T00:26:35;48.00;;;22.50;;
11398;SDS011;5755;48.116;11.608;2022-12-18T00:29:11;46.70;;;20.93;;
11398;SDS011;5755;48.116;11.608;2022-12-18T00:31:54;46.33;;;21.40;;
11398;SDS011;5755;48.116;11.608;2022-12-18T00:37:28;46.27;;;20.20;;
11398;SDS011;5755;48.116;11.608;2022-12-18T00:39:56;39.77;;;18.80;;
11398;SDS011;5755;48.116;11.608;2022-12-18T00:45:59;40.90;;;18.00;;
11398;SDS011;5755;48.116;11.608;2022-12-18T00:48:36;42.97;;;18.27;;
11398;SDS011;5755;48.116;11.608;2022-12-18T00:54:05;40.63;;;18.60;;
11398;SDS011;5755;48.116;11.608;2022-12-18T00:56:35;39.87;;;18.83;;
11398;SDS011;5755;48.116;11.608;2022-12-18T00:59:17;47.90;;;18.93;;
11398;SDS011;5755;48.116;11.608;2022-12-18T01:01:46;39.73;;;18.67;;
11398;SDS011;5755;48.116;11.608;2022-12-18T01:04:15;39.10;;;18.93;;
11398;SDS011;5755;48.116;11.608;2022-12-18T01:06:45;38.23;;;18.33;;
11398;SDS011;5755;48.116;11.608;2022-12-18T01:09:28;42.10;;;18.77;;
11398;SDS011;5755;48.116;11.608;2022-12-18T01:12:05;44.40;;;19.50;;
11398;SDS011;5755;48.116;11.608;2022-12-18T01:21:07;42.73;;;19.13;;
11398;SDS011;5755;48.116;11.608;2022-12-18T01:32:53;38.97;;;18.73;;
11398;SDS011;5755;48.116;11.608;2022-12-18T01:35:23;42.63;;;19.37;;
11398;SDS011;5755;48.116;11.608;2022-12-18T01:41:25;40.93;;;19.43;;
11398;SDS011;5755;48.116;11.608;2022-12-18T01:54:16;40.53;;;20.57;;
11398;SDS011;5755;48.116;11.608;2022-12-18T01:57:00;45.37;;;21.43;;
11398;SDS011;5755;48.116;11.608;2022-12-18T02:05:24;40.87;;;20.17;;
11398;SDS011;5755;48.116;11.608;2022-12-18T02:17:50;46.10;;;20.27;;
11398;SDS011;5755;48.116;11.608;2022-12-18T02:23:39;43.87;;;20.53;;
11398;SDS011;5755;48.116;11.608;2022-12-18T02:29:29;44.43;;;20.83;;
11398;SDS011;5755;48.116;11.608;2022-12-18T02:41:01;76.47;;;35.87;;
11398;SDS011;5755;48.116;11.608;2022-12-18T02:43:42;54.77;;;24.97;;
11398;SDS011;5755;48.116;11.608;2022-12-18T02:46:23;53.03;;;23.87;;
11398;SDS011;5755;48.116;11.608;2022-12-18T02:58:20;42.73;;;20.77;;
11398;SDS011;5755;48.116;11.608;2022-12-18T03:07:05;42.23;;;21.10;;
11398;SDS011;5755;48.116;11.608;2022-12-18T03:09:37;50.27;;;22.57;;
11398;SDS011;5755;48.116;11.608;2022-12-18T03:15:29;45.67;;;20.77;;
11398;SDS011;5755;48.116;11.608;2022-12-18T03:18:13;48.13;;;21.87;;
11398;SDS011;5755;48.116;11.608;2022-12-18T03:23:43;47.27;;;21.03;;
11398;SDS011;5755;48.116;11.608;2022-12-18T03:26:24;45.57;;;21.20;;
11398;SDS011;5755;48.116;11.608;2022-12-18T03:29:06;46.77;;;21.67;;
11398;SDS011;5755;48.116;11.608;2022-12-18T03:34:42;46.87;;;22.07;;
11398;SDS011;5755;48.116;11.608;2022-12-18T03:40:11;49.97;;;22.00;;
11398;SDS011;5755;48.116;11.608;2022-12-18T03:42:47;40.97;;;20.93;;
11398;SDS011;5755;48.116;11.608;2022-12-18T03:45:30;47.80;;;21.87;;
11398;SDS011;5755;48.116;11.608;2022-12-18T03:59:43;42.07;;;20.87;;
11398;SDS011;5755;48.116;11.608;2022-12-18T04:05:11;45.47;;;22.47;;
11398;SDS011;5755;48.116;11.608;2022-12-18T04:27:48;46.50;;;21.27;;
11398;SDS011;5755;48.116;11.608;2022-12-18T04:33:29;39.00;;;19.50;;
11398;SDS011;5755;48.116;11.608;2022-12-18T04:35:56;39.10;;;19.63;;
11398;SDS011;5755;48.116;11.608;2022-12-18T04:48:12;42.97;;;19.63;;
11398;SDS011;5755;48.116;11.608;2022-12-18T04:50:47;41.40;;;20.03;;
11398;SDS011;5755;48.116;11.608;2022-12-18T05:05:42;36.37;;;18.23;;
11398;SDS011;5755;48.116;11.608;2022-12-18T05:14:35;35.77;;;18.47;;
11398;SDS011;5755;48.116;11.608;2022-12-18T05:17:02;34.67;;;17.40;;
11398;SDS011;5755;48.116;11.608;2022-12-18T05:19:41;38.63;;;18.37;;
11398;SDS011;5755;48.116;11.608;2022-12-18T05:31:47;38.47;;;18.13;;
11398;SDS011;5755;48.116;11.608;2022-12-18T05:34:17;37.00;;;17.77;;
11398;SDS011;5755;48.116;11.608;2022-12-18T06:09:11;38.90;;;17.00;;
11398;SDS011;5755;48.116;11.608;2022-12-18T06:17:53;34.73;;;16.93;;
11398;SDS011;5755;48.116;11.608;2022-12-18T06:40:11;32.57;;;15.83;;
11398;SDS011;5755;48.116;11.608;2022-12-18T06:42:41;34.20;;;16.43;;
11398;SDS011;5755;48.116;11.608;2022-12-18T06:45:08;35.57;;;17.33;;
11398;SDS011;5755;48.116;11.608;2022-12-18T06:47:36;33.17;;;16.87;;
11398;SDS011;5755;48.116;11.608;2022-12-18T06:53:17;36.23;;;17.13;;
11398;SDS011;5755;48.116;11.608;2022-12-18T06:55:46;38.33;;;17.67;;
11398;SDS011;5755;48.116;11.608;2022-12-18T06:58:17;37.73;;;17.40;;
11398;SDS011;5755;48.116;11.608;2022-12-18T07:03:41;36.23;;;17.20;;
11398;SDS011;5755;48.116;11.608;2022-12-18T07:06:13;34.43;;;17.33;;
11398;SDS011;5755;48.116;11.608;2022-12-18T07:15:26;36.10;;;17.13;;
11398;SDS011;5755;48.116;11.608;2022-12-18T07:17:53;36.13;;;16.13;;
11398;SDS011;5755;48.116;11.608;2022-12-18T07:29:47;34.27;;;16.47;;
11398;SDS011;5755;48.116;11.608;2022-12-18T07:32:16;38.40;;;16.77;;
11398;SDS011;5755;48.116;11.608;2022-12-18T07:38:11;35.27;;;16.57;;
11398;SDS011;5755;48.116;11.608;2022-12-18T07:43:33;32.37;;;16.37;;
11398;SDS011;5755;48.116;11.608;2022-12-18T07:52:05;36.30;;;16.87;;
11398;SDS011;5755;48.116;11.608;2022-12-18T08:16:29;29.60;;;14.97;;
11398;SDS011;5755;48.116;11.608;2022-12-18T08:19:05;32.20;;;14.80;;
11398;SDS011;5755;48.116;11.608;2022-12-18T08:30:57;29.17;;;15.60;;
11398;SDS011;5755;48.116;11.608;2022-12-18T08:33:29;32.23;;;15.90;;
11398;SDS011;5755;48.116;11.608;2022-12-18T08:35:56;30.00;;;15.70;;
11398;SDS011;5755;48.116;11.608;2022-12-18T08:41:47;29.00;;;15.80;;
11398;SDS011;5755;48.116;11.608;2022-12-18T08:44:29;28.20;;;15.23;;
11398;SDS011;5755;48.116;11.608;2022-12-18T08:47:23;32.07;;;14.90;;
11398;SDS011;5755;48.116;11.608;2022-12-18T08:55:59;28.60;;;14.47;;
11398;SDS011;5755;48.116;11.608;2022-12-18T09:02:00;32.23;;;15.00;;
11398;SDS011;5755;48.116;11.608;2022-12-18T09:04:27;28.63;;;14.80;;
11398;SDS011;5755;48.116;11.608;2022-12-18T09:07:05;28.57;;;14.60;;
11398;SDS011;5755;48.116;11.608;2022-12-18T09:13:11;29.50;;;14.53;;
11398;SDS011;5755;48.116;11.608;2022-12-18T09:19:01;26.93;;;14.03;;
11398;SDS011;5755;48.116;11.608;2022-12-18T09:21:47;27.67;;;13.90;;
11398;SDS011;5755;48.116;11.608;2022-12-18T09:27:41;26.77;;;14.13;;
11398;SDS011;5755;48.116;11.608;2022-12-18T09:30:09;30.10;;;15.00;;
11398;SDS011;5755;48.116;11.608;2022-12-18T09:39:37;29.13;;;14.33;;
11398;SDS011;5755;48.116;11.608;2022-12-18T09:42:18;28.97;;;14.30;;
11398;SDS011;5755;48.116;11.608;2022-12-18T09:47:47;27.57;;;14.13;;
11398;SDS011;5755;48.116;11.608;2022-12-18T09:57:00;26.33;;;13.50;;
11398;SDS011;5755;48.116;11.608;2022-12-18T09:59:36;26.83;;;14.07;;
11398;SDS011;5755;48.116;11.608;2022-12-18T10:02:18;28.20;;;14.50;;
11398;SDS011;5755;48.116;11.608;2022-12-18T10:04:49;28.53;;;14.73;;
11398;SDS011;5755;48.116;11.608;2022-12-18T10:10:19;29.17;;;14.70;;
11398;SDS011;5755;48.116;11.608;2022-12-18T10:13:12;26.70;;;13.47;;
11398;SDS011;5755;48.116;11.608;2022-12-18T10:15:55;25.70;;;13.33;;
11398;SDS011;5755;48.116;11.608;2022-12-18T10:23:51;28.47;;;14.43;;
11398;SDS011;5755;48.116;11.608;2022-12-18T10:26:24;26.70;;;14.50;;
11398;SDS011;5755;48.116;11.608;2022-12-18T10:28:54;25.00;;;13.40;;
11398;SDS011;5755;48.116;11.608;2022-12-18T10:31:29;25.30;;;13.40;;
11398;SDS011;5755;48.116;11.608;2022-12-18T10:33:56;27.97;;;14.07;;
11398;SDS011;5755;48.116;11.608;2022-12-18T10:36:23;26.23;;;14.40;;
11398;SDS011;5755;48.116;11.608;2022-12-18T10:39:04;27.20;;;14.33;;
11398;SDS011;5755;48.116;11.608;2022-12-18T10:41:41;28.07;;;14.73;;
11398;SDS011;5755;48.116;11.608;2022-12-18T10:44:19;30.17;;;14.00;;
11398;SDS011;5755;48.116;11.608;2022-12-18T10:50:10;27.33;;;13.73;;
11398;SDS011;5755;48.116;11.608;2022-12-18T10:52:54;24.73;;;13.13;;
11398;SDS011;5755;48.116;11.608;2022-12-18T10:55:23;27.00;;;14.37;;
11398;SDS011;5755;48.116;11.608;2022-12-18T11:01:10;28.60;;;14.13;;
11398;SDS011;5755;48.116;11.608;2022-12-18T11:03:42;25.43;;;13.17;;
11398;SDS011;5755;48.116;11.608;2022-12-18T11:06:12;24.93;;;13.60;;
11398;SDS011;5755;48.116;11.608;2022-12-18T11:11:47;27.20;;;13.70;;
11398;SDS011;5755;48.116;11.608;2022-12-18T11:14:24;26.57;;;13.40;;
11398;SDS011;5755;48.116;11.608;2022-12-18T11:16:54;26.77;;;14.07;;
11398;SDS011;5755;48.116;11.608;2022-12-18T11:19:26;26.03;;;14.27;;
11398;SDS011;5755;48.116;11.608;2022-12-18T11:22:00;26.33;;;14.30;;
11398;SDS011;5755;48.116;11.608;2022-12-18T11:24:29;25.40;;;13.47;;
11398;SDS011;5755;48.116;11.608;2022-12-18T11:30:08;26.90;;;13.87;;
11398;SDS011;5755;48.116;11.608;2022-12-18T11:32:43;24.17;;;13.47;;
11398;SDS011;5755;48.116;11.608;2022-12-18T11:35:25;24.43;;;13.67;;
11398;SDS011;5755;48.116;11.608;2022-12-18T11:38:03;26.73;;;14.00;;
11398;SDS011;5755;48.116;11.608;2022-12-18T11:40:42;28.13;;;14.13;;
11398;SDS011;5755;48.116;11.608;2022-12-18T11:43:18;26.93;;;14.50;;
11398;SDS011;5755;48.116;11.608;2022-12-18T11:46:06;28.27;;;13.83;;
11398;SDS011;5755;48.116;11.608;2022-12-18T11:48:38;25.83;;;13.93;;
11398;SDS011;5755;48.116;11.608;2022-12-18T11:54:08;25.53;;;13.20;;
11398;SDS011;5755;48.116;11.608;2022-12-18T11:56:39;25.97;;;13.57;;
11398;SDS011;5755;48.116;11.608;2022-12-18T11:59:15;25.23;;;13.33;;
11398;SDS011;5755;48.116;11.608;2022-12-18T12:05:01;23.40;;;13.10;;
11398;SDS011;5755;48.116;11.608;2022-12-18T12:07:54;24.33;;;12.80;;
11398;SDS011;5755;48.116;11.608;2022-12-18T12:10:38;24.13;;;13.07;;
11398;SDS011;5755;48.116;11.608;2022-12-18T12:13:26;25.37;;;14.43;;
11398;SDS011;5755;48.116;11.608;2022-12-18T12:21:57;23.80;;;12.70;;
11398;SDS011;5755;48.116;11.608;2022-12-18T12:24:45;24.63;;;13.33;;
11398;SDS011;5755;48.116;11.608;2022-12-18T12:27:26;26.33;;;13.70;;
11398;SDS011;5755;48.116;11.608;2022-12-18T12:33:01;25.07;;;12.73;;
11398;SDS011;5755;48.116;11.608;2022-12-18T12:35:42;24.37;;;13.43;;
11398;SDS011;5755;48.116;11.608;2022-12-18T12:41:18;23.53;;;12.67;;
11398;SDS011;5755;48.116;11.608;2022-12-18T12:44:07;25.90;;;12.73;;
11398;SDS011;5755;48.116;11.608;2022-12-18T12:46:41;26.70;;;13.67;;
11398;SDS011;5755;48.116;11.608;2022-12-18T12:49:18;27.57;;;12.63;;
11398;SDS011;5755;48.116;11.608;2022-12-18T12:51:49;24.53;;;12.97;;
11398;SDS011;5755;48.116;11.608;2022-12-18T12:54:27;27.43;;;13.10;;
11398;SDS011;5755;48.116;11.608;2022-12-18T12:56:57;27.87;;;13.63;;
11398;SDS011;5755;48.116;11.608;2022-12-18T12:59:42;26.77;;;13.33;;
11398;SDS011;5755;48.116;11.608;2022-12-18T13:02:18;24.87;;;13.00;;
11398;SDS011;5755;48.116;11.608;2022-12-18T13:05:09;31.50;;;14.23;;
11398;SDS011;5755;48.116;11.608;2022-12-18T13:07:46;26.67;;;13.67;;
11398;SDS011;5755;48.116;11.608;2022-12-18T13:10:37;22.40;;;12.40;;
11398;SDS011;5755;48.116;11.608;2022-12-18T13:13:17;27.20;;;12.83;;
11398;SDS011;5755;48.116;11.608;2022-12-18T13:15:48;29.83;;;14.37;;
11398;SDS011;5755;48.116;11.608;2022-12-18T13:18:29;28.10;;;14.23;;
11398;SDS011;5755;48.116;11.608;2022-12-18T13:21:12;28.33;;;13.80;;
11398;SDS011;5755;48.116;11.608;2022-12-18T13:23:53;28.40;;;12.83;;
11398;SDS011;5755;48.116;11.608;2022-12-18T13:26:36;25.90;;;13.07;;
11398;SDS011;5755;48.116;11.608;2022-12-18T13:32:19;25.33;;;12.50;;
11398;SDS011;5755;48.116;11.608;2022-12-18T13:34:47;28.10;;;14.43;;
11398;SDS011;5755;48.116;11.608;2022-12-18T13:43:27;25.60;;;13.50;;
11398;SDS011;5755;48.116;11.608;2022-12-18T13:46:06;26.40;;;13.40;;
11398;SDS011;5755;48.116;11.608;2022-12-18T13:48:51;29.03;;;14.00;;
11398;SDS011;5755;48.116;11.608;2022-12-18T13:51:22;24.77;;;13.70;;
11398;SDS011;5755;48.116;11.608;2022-12-18T13:54:00;26.03;;;13.03;;
11398;SDS011;5755;48.116;11.608;2022-12-18T13:56:30;26.90;;;13.87;;
11398;SDS011;5755;48.116;11.608;2022-12-18T13:59:25;29.50;;;14.77;;
11398;SDS011;5755;48.116;11.608;2022-12-18T14:01:54;28.97;;;13.30;;
11398;SDS011;5755;48.116;11.608;2022-12-18T14:04:35;29.87;;;13.60;;
11398;SDS011;5755;48.116;11.608;2022-12-18T14:07:03;30.57;;;15.00;;
11398;SDS011;5755;48.116;11.608;2022-12-18T14:09:34;26.23;;;14.33;;
11398;SDS011;5755;48.116;11.608;2022-12-18T14:12:14;27.80;;;14.37;;
11398;SDS011;5755;48.116;11.608;2022-12-18T14:15:09;27.67;;;14.90;;
11398;SDS011;5755;48.116;11.608;2022-12-18T14:18:12;25.63;;;13.17;;
11398;SDS011;5755;48.116;11.608;2022-12-18T14:20:48;26.70;;;14.00;;
11398;SDS011;5755;48.116;11.608;2022-12-18T14:23:26;28.33;;;13.70;;
11398;SDS011;5755;48.116;11.608;2022-12-18T14:25:55;28.97;;;13.40;;
11398;SDS011;5755;48.116;11.608;2022-12-18T14:28:23;28.73;;;14.77;;
11398;SDS011;5755;48.116;11.608;2022-12-18T14:30:53;28.50;;;14.67;;
11398;SDS011;5755;48.116;11.608;2022-12-18T14:33:22;29.87;;;15.07;;
11398;SDS011;5755;48.116;11.608;2022-12-18T14:35:55;29.07;;;14.53;;
11398;SDS011;5755;48.116;11.608;2022-12-18T14:38:25;28.43;;;14.90;;
11398;SDS011;5755;48.116;11.608;2022-12-18T14:40:59;28.03;;;14.73;;
11398;SDS011;5755;48.116;11.608;2022-12-18T14:43:31;29.73;;;14.70;;
11398;SDS011;5755;48.116;11.608;2022-12-18T14:46:02;29.63;;;15.00;;
11398;SDS011;5755;48.116;11.608;2022-12-18T14:51:35;28.17;;;14.23;;
11398;SDS011;5755;48.116;11.608;2022-12-18T14:54:05;28.30;;;14.80;;
11398;SDS011;5755;48.116;11.608;2022-12-18T14:56:48;32.17;;;16.23;;
11398;SDS011;5755;48.116;11.608;2022-12-18T14:59:35;29.97;;;15.17;;
11398;SDS011;5755;48.116;11.608;2022-12-18T15:02:07;31.83;;;15.07;;
11398;SDS011;5755;48.116;11.608;2022-12-18T15:04:47;28.70;;;14.33;;
11398;SDS011;5755;48.116;11.608;2022-12-18T15:07:26;27.53;;;14.50;;
11398;SDS011;5755;48.116;11.608;2022-12-18T15:10:03;31.70;;;14.63;;
11398;SDS011;5755;48.116;11.608;2022-12-18T15:16:00;29.43;;;13.63;;
11398;SDS011;5755;48.116;11.608;2022-12-18T15:18:33;31.03;;;14.63;;
11398;SDS011;5755;48.116;11.608;2022-12-18T15:21:14;27.80;;;14.57;;
11398;SDS011;5755;48.116;11.608;2022-12-18T15:23:53;29.67;;;15.13;;
11398;SDS011;5755;48.116;11.608;2022-12-18T15:26:30;27.30;;;13.47;;
11398;SDS011;5755;48.116;11.608;2022-12-18T15:29:15;29.90;;;14.67;;
11398;SDS011;5755;48.116;11.608;2022-12-18T15:31:57;26.30;;;13.77;;
11398;SDS011;5755;48.116;11.608;2022-12-18T15:34:27;29.53;;;14.70;;
11398;SDS011;5755;48.116;11.608;2022-12-18T15:36:59;29.97;;;14.77;;
11398;SDS011;5755;48.116;11.608;2022-12-18T15:39:26;35.07;;;15.40;;
11398;SDS011;5755;48.116;11.608;2022-12-18T15:42:00;31.07;;;15.17;;
11398;SDS011;5755;48.116;11.608;2022-12-18T15:47:52;31.37;;;15.37;;
11398;SDS011;5755;48.116;11.608;2022-12-18T15:50:25;30.73;;;14.57;;
11398;SDS011;5755;48.116;11.608;2022-12-18T15:52:52;27.67;;;14.57;;
11398;SDS011;5755;48.116;11.608;2022-12-18T15:55:21;28.53;;;14.80;;
11398;SDS011;5755;48.116;11.608;2022-12-18T15:58:08;32.80;;;15.67;;
11398;SDS011;5755;48.116;11.608;2022-12-18T16:00:41;31.13;;;15.77;;
11398;SDS011;5755;48.116;11.608;2022-12-18T16:03:08;28.87;;;15.00;;
11398;SDS011;5755;48.116;11.608;2022-12-18T16:05:37;35.10;;;17.13;;
11398;SDS011;5755;48.116;11.608;2022-12-18T16:08:04;29.27;;;13.87;;
11398;SDS011;5755;48.116;11.608;2022-12-18T16:10:35;31.33;;;16.07;;
11398;SDS011;5755;48.116;11.608;2022-12-18T16:15:50;30.60;;;15.77;;
11398;SDS011;5755;48.116;11.608;2022-12-18T16:21:35;32.90;;;15.70;;
11398;SDS011;5755;48.116;11.608;2022-12-18T16:24:05;31.10;;;15.20;;
11398;SDS011;5755;48.116;11.608;2022-12-18T16:26:54;30.17;;;15.37;;
11398;SDS011;5755;48.116;11.608;2022-12-18T16:29:29;32.73;;;16.50;;
11398;SDS011;5755;48.116;11.608;2022-12-18T16:32:05;30.10;;;15.57;;
11398;SDS011;5755;48.116;11.608;2022-12-18T16:34:47;32.77;;;15.13;;
11398;SDS011;5755;48.116;11.608;2022-12-18T16:37:19;34.90;;;16.03;;
11398;SDS011;5755;48.116;11.608;2022-12-18T16:39:46;30.00;;;15.27;;
11398;SDS011;5755;48.116;11.608;2022-12-18T16:42:18;29.13;;;16.47;;
11398;SDS011;5755;48.116;11.608;2022-12-18T16:44:46;34.07;;;16.17;;
11398;SDS011;5755;48.116;11.608;2022-12-18T16:47:17;29.87;;;15.87;;
11398;SDS011;5755;48.116;11.608;2022-12-18T16:49:53;34.33;;;17.60;;
11398;SDS011;5755;48.116;11.608;2022-12-18T16:52:25;28.80;;;15.43;;
11398;SDS011;5755;48.116;11.608;2022-12-18T16:54:57;35.63;;;16.97;;
11398;SDS011;5755;48.116;11.608;2022-12-18T16:57:24;35.20;;;17.90;;
11398;SDS011;5755;48.116;11.608;2022-12-18T17:02:53;35.23;;;17.27;;
11398;SDS011;5755;48.116;11.608;2022-12-18T17:05:20;31.63;;;16.23;;
11398;SDS011;5755;48.116;11.608;2022-12-18T17:07:55;35.33;;;17.00;;
11398;SDS011;5755;48.116;11.608;2022-12-18T17:10:22;31.93;;;17.27;;
11398;SDS011;5755;48.116;11.608;2022-12-18T17:12:49;32.20;;;16.03;;
11398;SDS011;5755;48.116;11.608;2022-12-18T17:15:35;32.27;;;15.90;;
11398;SDS011;5755;48.116;11.608;2022-12-18T17:18:03;31.63;;;15.43;;
11398;SDS011;5755;48.116;11.608;2022-12-18T17:20:47;32.27;;;16.27;;
11398;SDS011;5755;48.116;11.608;2022-12-18T17:23:19;31.43;;;15.77;;
11398;SDS011;5755;48.116;11.608;2022-12-18T17:25:59;32.07;;;16.77;;
11398;SDS011;5755;48.116;11.608;2022-12-18T17:28:29;33.93;;;15.97;;
11398;SDS011;5755;48.116;11.608;2022-12-18T17:30:59;34.23;;;17.53;;
11398;SDS011;5755;48.116;11.608;2022-12-18T17:33:27;34.90;;;17.07;;
11398;SDS011;5755;48.116;11.608;2022-12-18T17:38:55;33.97;;;16.53;;
11398;SDS011;5755;48.116;11.608;2022-12-18T17:41:24;36.00;;;17.33;;
11398;SDS011;5755;48.116;11.608;2022-12-18T17:43:54;36.73;;;18.00;;
11398;SDS011;5755;48.116;11.608;2022-12-18T17:46:22;37.03;;;19.07;;
11398;SDS011;5755;48.116;11.608;2022-12-18T17:48:50;34.33;;;17.53;;
11398;SDS011;5755;48.116;11.608;2022-12-18T17:51:35;36.47;;;16.73;;
11398;SDS011;5755;48.116;11.608;2022-12-18T17:54:04;35.63;;;18.17;;
11398;SDS011;5755;48.116;11.608;2022-12-18T17:56:31;35.73;;;17.40;;
11398;SDS011;5755;48.116;11.608;2022-12-18T17:58:58;35.03;;;18.20;;
11398;SDS011;5755;48.116;11.608;2022-12-18T18:01:41;33.67;;;17.87;;
11398;SDS011;5755;48.116;11.608;2022-12-18T18:04:11;39.03;;;18.53;;
11398;SDS011;5755;48.116;11.608;2022-12-18T18:06:42;40.00;;;18.27;;
11398;SDS011;5755;48.116;11.608;2022-12-18T18:09:21;38.17;;;18.80;;
11398;SDS011;5755;48.116;11.608;2022-12-18T18:12:05;39.73;;;18.80;;
11398;SDS011;5755;48.116;11.608;2022-12-18T18:14:53;41.43;;;18.77;;
11398;SDS011;5755;48.116;11.608;2022-12-18T18:17:20;38.87;;;18.27;;
11398;SDS011;5755;48.116;11.608;2022-12-18T18:19:53;37.83;;;19.07;;
11398;SDS011;5755;48.116;11.608;2022-12-18T18:22:20;34.20;;;18.03;;
11398;SDS011;5755;48.116;11.608;2022-12-18T18:27:47;35.00;;;17.93;;
11398;SDS011;5755;48.116;11.608;2022-12-18T18:30:17;36.60;;;18.57;;
11398;SDS011;5755;48.116;11.608;2022-12-18T18:32:53;34.10;;;17.37;;
11398;SDS011;5755;48.116;11.608;2022-12-18T18:38:17;38.57;;;18.83;;
11398;SDS011;5755;48.116;11.608;2022-12-18T18:40:51;42.73;;;20.17;;
11398;SDS011;5755;48.116;11.608;2022-12-18T18:43:29;39.17;;;18.53;;
11398;SDS011;5755;48.116;11.608;2022-12-18T18:45:57;37.07;;;18.03;;
11398;SDS011;5755;48.116;11.608;2022-12-18T18:51:29;34.97;;;16.13;;
11398;SDS011;5755;48.116;11.608;2022-12-18T18:53:57;36.50;;;17.87;;
11398;SDS011;5755;48.116;11.608;2022-12-18T18:59:23;36.93;;;17.70;;
11398;SDS011;5755;48.116;11.608;2022-12-18T19:01:59;36.97;;;18.30;;
11398;SDS011;5755;48.116;11.608;2022-12-18T19:04:41;38.83;;;17.87;;
11398;SDS011;5755;48.116;11.608;2022-12-18T19:07:09;41.70;;;19.70;;
11398;SDS011;5755;48.116;11.608;2022-12-18T19:12:31;36.23;;;18.33;;
11398;SDS011;5755;48.116;11.608;2022-12-18T19:15:35;38.83;;;18.50;;
11398;SDS011;5755;48.116;11.608;2022-12-18T19:18:05;38.53;;;19.03;;
11398;SDS011;5755;48.116;11.608;2022-12-18T19:20:41;41.73;;;18.13;;
11398;SDS011;5755;48.116;11.608;2022-12-18T19:23:11;37.43;;;17.77;;
11398;SDS011;5755;48.116;11.608;2022-12-18T19:25:41;39.00;;;19.07;;
11398;SDS011;5755;48.116;11.608;2022-12-18T19:28:10;36.77;;;18.70;;
11398;SDS011;5755;48.116;11.608;2022-12-18T19:30:37;40.07;;;19.23;;
11398;SDS011;5755;48.116;11.608;2022-12-18T19:33:05;36.20;;;18.43;;
11398;SDS011;5755;48.116;11.608;2022-12-18T19:35:32;39.87;;;18.93;;
11398;SDS011;5755;48.116;11.608;2022-12-18T19:37:59;38.97;;;18.63;;
11398;SDS011;5755;48.116;11.608;2022-12-18T19:40:26;40.30;;;18.97;;
11398;SDS011;5755;48.116;11.608;2022-12-18T19:42:53;37.10;;;18.23;;
11398;SDS011;5755;48.116;11.608;2022-12-18T19:45:25;39.87;;;18.43;;
11398;SDS011;5755;48.116;11.608;2022-12-18T19:47:54;40.90;;;18.60;;
11398;SDS011;5755;48.116;11.608;2022-12-18T19:50:22;36.27;;;17.73;;
11398;SDS011;5755;48.116;11.608;2022-12-18T19:52:49;35.40;;;17.03;;
11398;SDS011;5755;48.116;11.608;2022-12-18T19:55:16;31.17;;;17.00;;
11398;SDS011;5755;48.116;11.608;2022-12-18T19:57:43;36.77;;;18.67;;
11398;SDS011;5755;48.116;11.608;2022-12-18T20:00:10;33.97;;;16.63;;
11398;SDS011;5755;48.116;11.608;2022-12-18T20:02:39;33.80;;;16.10;;
11398;SDS011;5755;48.116;11.608;2022-12-18T20:05:08;35.80;;;17.50;;
11398;SDS011;5755;48.116;11.608;2022-12-18T20:07:47;33.83;;;17.77;;
11398;SDS011;5755;48.116;11.608;2022-12-18T20:10:14;39.23;;;18.23;;
11398;SDS011;5755;48.116;11.608;2022-12-18T20:12:47;40.00;;;18.87;;
11398;SDS011;5755;48.116;11.608;2022-12-18T20:15:14;39.43;;;19.63;;
11398;SDS011;5755;48.116;11.608;2022-12-18T20:17:44;36.80;;;18.13;;
11398;SDS011;5755;48.116;11.608;2022-12-18T20:20:11;38.03;;;18.30;;
11398;SDS011;5755;48.116;11.608;2022-12-18T20:22:38;40.27;;;19.70;;
11398;SDS011;5755;48.116;11.608;2022-12-18T20:25:05;42.33;;;19.20;;
11398;SDS011;5755;48.116;11.608;2022-12-18T20:27:32;42.27;;;19.77;;
11398;SDS011;5755;48.116;11.608;2022-12-18T20:29:59;41.93;;;19.37;;
11398;SDS011;5755;48.116;11.608;2022-12-18T20:32:27;41.47;;;19.80;;
11398;SDS011;5755;48.116;11.608;2022-12-18T20:34:55;41.60;;;19.60;;
11398;SDS011;5755;48.116;11.608;2022-12-18T20:37:22;42.13;;;18.87;;
11398;SDS011;5755;48.116;11.608;2022-12-18T20:42:38;37.60;;;18.37;;
11398;SDS011;5755;48.116;11.608;2022-12-18T20:47:47;41.30;;;19.20;;
11398;SDS011;5755;48.116;11.608;2022-12-18T20:50:16;40.33;;;19.53;;
11398;SDS011;5755;48.116;11.608;2022-12-18T20:52:44;40.20;;;19.10;;
11398;SDS011;5755;48.116;11.608;2022-12-18T20:55:13;44.97;;;20.23;;
11398;SDS011;5755;48.116;11.608;2022-12-18T20:57:40;39.80;;;18.83;;
11398;SDS011;5755;48.116;11.608;2022-12-18T21:00:08;41.60;;;19.43;;
11398;SDS011;5755;48.116;11.608;2022-12-18T21:02:38;39.23;;;19.23;;
11398;SDS011;5755;48.116;11.608;2022-12-18T21:05:06;42.17;;;19.17;;
11398;SDS011;5755;48.116;11.608;2022-12-18T21:07:35;42.10;;;19.07;;
11398;SDS011;5755;48.116;11.608;2022-12-18T21:10:06;41.63;;;19.07;;
11398;SDS011;5755;48.116;11.608;2022-12-18T21:12:33;43.57;;;19.93;;
11398;SDS011;5755;48.116;11.608;2022-12-18T21:15:03;45.03;;;20.17;;
11398;SDS011;5755;48.116;11.608;2022-12-18T21:17:34;41.80;;;19.47;;
11398;SDS011;5755;48.116;11.608;2022-12-18T21:20:02;42.20;;;19.73;;
11398;SDS011;5755;48.116;11.608;2022-12-18T21:22:30;41.57;;;19.93;;
11398;SDS011;5755;48.116;11.608;2022-12-18T21:25:01;41.17;;;19.97;;
11398;SDS011;5755;48.116;11.608;2022-12-18T21:27:28;44.40;;;20.70;;
11398;SDS011;5755;48.116;11.608;2022-12-18T21:29:55;43.50;;;20.43;;
11398;SDS011;5755;48.116;11.608;2022-12-18T21:32:23;44.10;;;20.77;;
11398;SDS011;5755;48.116;11.608;2022-12-18T21:34:51;41.10;;;19.90;;
11398;SDS011;5755;48.116;11.608;2022-12-18T21:40:31;39.87;;;19.00;;
11398;SDS011;5755;48.116;11.608;2022-12-18T21:43:12;41.70;;;19.17;;
11398;SDS011;5755;48.116;11.608;2022-12-18T21:45:56;42.97;;;19.83;;
11398;SDS011;5755;48.116;11.608;2022-12-18T21:48:23;41.73;;;19.33;;
11398;SDS011;5755;48.116;11.608;2022-12-18T21:50:53;45.30;;;19.47;;
11398;SDS011;5755;48.116;11.608;2022-12-18T21:53:23;41.77;;;19.10;;
11398;SDS011;5755;48.116;11.608;2022-12-18T21:55:57;42.90;;;19.87;;
11398;SDS011;5755;48.116;11.608;2022-12-18T21:58:24;42.33;;;20.13;;
11398;SDS011;5755;48.116;11.608;2022-12-18T22:00:51;39.33;;;19.47;;
11398;SDS011;5755;48.116;11.608;2022-12-18T22:03:23;42.80;;;19.33;;
11398;SDS011;5755;48.116;11.608;2022-12-18T22:05:50;43.23;;;20.10;;
11398;SDS011;5755;48.116;11.608;2022-12-18T22:08:17;48.90;;;20.33;;
11398;SDS011;5755;48.116;11.608;2022-12-18T22:10:44;45.77;;;20.60;;
11398;SDS011;5755;48.116;11.608;2022-12-18T22:13:13;45.30;;;20.87;;
11398;SDS011;5755;48.116;11.608;2022-12-18T22:15:42;42.63;;;19.53;;